Arjeplog, Sweden

12:25 AM CEST on August 29, 2016 (GMT +0200)
Arvidsjaur | | Change Station

Elev 1243 ft 65.59 °N, 19.28 °E | Updated 5 minutes ago

Clear
Clear
36 °F
Feels Like 33 °F
N
4
Wind Variable Wind from NE

Today
High -- | Low -- °F
--% Chance of Precip.
Yesterday
High -- | Low -- °F
Precip. -- in
Pressure 29.98 in
Visibility 6.2 miles
Clouds
Windchill 33 °F
Dew Point 36 °F
Humidity 100%
Rainfall 0.00 in
Snow Depth Not available.
5:14 AM 8:21 PM
Waning Crescent, 13% visible
METAR ESNX 282220Z AUTO 05003KT 9999NDV NCD 02/02 Q1015
Pressure 29.98 in
Visibility 6.2 miles
Clouds
Windchill 33 °F
Dew Point 36 °F
Humidity 100%
Rainfall 0.00 in
Snow Depth Not available.
5:14 AM 8:21 PM
Waning Crescent, 13% visible
METAR ESNX 282220Z AUTO 05003KT 9999NDV NCD 02/02 Q1015

10-Day Weather Forecast

×

Almanac

Astronomy

Aug. 29, 2016 Rise Set
Actual Time
Civil Twilight
Nautical Twilight
Astronomical Twilight
Moon
Length of Visible Light
Length of Day
Tomorrow will be .
, % of the Moon is Illuminated

Today's Extremes

Country Highs Country Lows

Community

WunderPhotos

Upload Photos

1,935,705 photos uploaded!

WunderBlog® & News

Nearby

Air Quality

  Air Quality AQ Index Pollutant
Not available.

Snow Depth

Station Depth Elevation

Earthquake Activity

City Distance Mag. Time & Date
Minimum magnitude displayed is 2.5.

Coastal Water Temperatures

Place Temperature

Stations

Nearby Weather Stations

Station Location Temp. Windchill Dew Point Humidity Wind Precip. Elev Updated Type